Time;durP1;ratioP1;P1;durP2;ratioP2;P2;SDS_P1;SDS_P2;PMS_P1;PMS_P2;Temp;Humidity;BMP_temperature;BMP_pressure;BME280_temperature;BME280_humidity;BME280_pressure;Samples;Min_cycle;Max_cycle;Signal;HPM_P1;HPM_P2
2022/12/06 00:01:24;;;;;;;7.75;3.35;;;;;;;-7.23;50.48;101651.19;5034146;28;20098;-51
2022/12/06 00:03:53;;;;;;;9.00;3.70;;;;;;;-7.19;50.44;101644.34;5051422;28;20033;-50
2022/12/06 00:06:21;;;;;;;8.15;3.83;;;;;;;-7.15;50.28;101635.75;5053561;28;20079;-53
2022/12/06 00:08:46;;;;;;;6.80;3.38;;;;;;;-7.17;50.65;101639.16;5053905;28;20029;-53
2022/12/06 00:11:15;;;;;;;6.72;3.50;;;;;;;-7.14;50.30;101629.69;5053331;28;20447;-52
2022/12/06 00:13:41;;;;;;;9.10;3.47;;;;;;;-7.14;50.26;101624.50;5051803;28;20432;-51
2022/12/06 00:16:11;;;;;;;6.70;3.67;;;;;;;-7.15;50.33;101640.97;5053016;28;20043;-49
2022/12/06 00:18:38;;;;;;;8.10;4.20;;;;;;;-7.18;50.39;101627.88;5053425;28;20356;-53
2022/12/06 00:21:10;;;;;;;7.25;3.67;;;;;;;-7.26;50.89;101619.91;5050754;28;20404;-51
2022/12/06 00:23:37;;;;;;;8.10;3.42;;;;;;;-7.32;50.63;101611.97;5053449;28;20059;-49
2022/12/06 00:26:03;;;;;;;9.38;3.70;;;;;;;-7.37;50.97;101608.34;5053564;28;20033;-50
2022/12/06 00:28:29;;;;;;;8.23;4.00;;;;;;;-7.37;51.05;101609.25;5053139;28;20048;-51
2022/12/06 00:31:03;;;;;;;8.27;4.38;;;;;;;-7.41;51.31;101597.03;5053069;28;20405;-48
2022/12/06 00:33:29;;;;;;;10.32;4.20;;;;;;;-7.41;50.94;101602.22;5053465;28;20435;-54
2022/12/06 00:35:55;;;;;;;7.40;3.35;;;;;;;-7.40;50.85;101603.09;5051668;28;20045;-51
2022/12/06 00:38:20;;;;;;;8.85;4.03;;;;;;;-7.55;50.84;101596.72;5053169;28;20037;-50
2022/12/06 00:40:46;;;;;;;8.63;4.15;;;;;;;-7.59;51.61;101605.31;5052818;28;20434;-50
2022/12/06 00:43:11;;;;;;;10.70;3.80;;;;;;;-7.66;51.77;101595.59;5053645;28;20408;-48
2022/12/06 00:45:37;;;;;;;13.73;3.60;;;;;;;-7.66;51.79;101609.47;5053370;28;20055;-47
2022/12/06 00:48:03;;;;;;;8.48;3.50;;;;;;;-7.70;51.98;101610.25;5052752;28;20056;-54
2022/12/06 00:50:29;;;;;;;9.07;3.70;;;;;;;-7.69;51.75;101603.31;5052460;28;20123;-50
2022/12/06 00:52:54;;;;;;;8.90;3.97;;;;;;;-7.72;51.76;101605.84;5052259;28;20451;-49
2022/12/06 00:55:19;;;;;;;7.88;4.13;;;;;;;-7.71;51.89;101592.91;5053167;28;20029;-51
2022/12/06 00:57:45;;;;;;;7.85;3.97;;;;;;;-7.70;52.03;101583.34;5041384;28;20037;-51
2022/12/06 01:00:11;;;;;;;7.57;3.92;;;;;;;-7.69;51.85;101586.00;5032921;28;20466;-50
2022/12/06 01:02:36;;;;;;;7.38;3.80;;;;;;;-7.94;51.88;101533.44;5032875;28;20036;-52
2022/12/06 01:05:02;;;;;;;8.90;4.30;;;;;;;-7.69;51.89;101579.91;5033052;28;20037;-50
2022/12/06 01:07:28;;;;;;;9.57;3.78;;;;;;;-7.70;52.21;101580.75;5032486;28;20037;-50
2022/12/06 01:09:54;;;;;;;8.15;3.97;;;;;;;-7.70;52.16;101571.25;5032481;28;20100;-52
2022/12/06 01:12:19;;;;;;;7.57;3.50;;;;;;;-7.70;52.13;101568.66;5042006;28;20040;-50
2022/12/06 01:14:45;;;;;;;6.32;3.65;;;;;;;-7.72;52.15;101570.31;5052687;28;20067;-48
2022/12/06 01:17:10;;;;;;;7.03;3.72;;;;;;;-7.96;52.13;101537.72;5052298;28;20029;-48
2022/12/06 01:19:36;;;;;;;8.57;4.13;;;;;;;-7.75;52.07;101575.44;5046496;28;20033;-50
2022/12/06 01:22:01;;;;;;;8.07;4.10;;;;;;;-7.74;52.17;101566.78;5031760;28;20037;-48
2022/12/06 01:24:26;;;;;;;7.63;3.70;;;;;;;-7.73;52.08;101572.88;5032479;28;20037;-51
2022/12/06 01:26:52;;;;;;;7.15;3.70;;;;;;;-7.73;52.08;101565.94;5032398;28;20109;-48
2022/12/06 01:29:17;;;;;;;6.03;3.10;;;;;;;-7.74;52.58;101547.72;5032427;28;20116;-52
2022/12/06 01:31:43;;;;;;;7.65;3.70;;;;;;;-7.65;51.64;101561.81;5032528;28;20441;-50
2022/12/06 01:34:14;;;;;;;8.45;3.72;;;;;;;-7.82;52.11;101518.94;5036027;28;20048;-51
2022/12/06 01:36:40;;;;;;;7.55;3.60;;;;;;;-7.60;52.17;101550.63;5052419;28;20043;-48
2022/12/06 01:39:09;;;;;;;9.00;3.92;;;;;;;-7.56;51.85;101555.03;5051947;28;20032;-48
2022/12/06 01:41:36;;;;;;;7.00;3.60;;;;;;;-7.56;51.64;101539.44;5050807;28;20029;-53
2022/12/06 01:44:02;;;;;;;6.43;3.40;;;;;;;-7.48;51.79;101550.88;5031896;28;20108;-49
2022/12/06 01:46:31;;;;;;;7.38;3.67;;;;;;;-7.44;51.52;101549.22;5032042;28;20045;-50
2022/12/06 01:49:11;;;;;;;8.82;3.72;;;;;;;-7.46;51.86;101553.53;5031802;28;20123;-49
2022/12/06 01:51:39;;;;;;;6.97;3.75;;;;;;;-7.47;51.53;101568.28;5032066;28;20423;-52
2022/12/06 01:54:09;;;;;;;9.63;3.85;;;;;;;-7.52;52.04;101564.66;5035767;28;20037;-52
2022/12/06 01:56:36;;;;;;;8.18;3.85;;;;;;;-7.60;51.67;101540.22;5052352;28;20047;-50
2022/12/06 01:59:02;;;;;;;8.02;3.60;;;;;;;-7.74;51.73;101519.97;5041255;28;20049;-50
2022/12/06 02:01:28;;;;;;;7.68;3.25;;;;;;;-7.71;51.51;101504.47;5032038;28;20551;-52
2022/12/06 02:03:57;;;;;;;8.75;4.13;;;;;;;-7.57;51.89;101535.09;5032463;28;20033;-49
2022/12/06 02:06:23;;;;;;;6.85;3.65;;;;;;;-7.62;52.09;101529.78;5031882;28;20037;-51
2022/12/06 02:08:50;;;;;;;10.13;4.18;;;;;;;-7.66;52.23;101539.25;5032177;28;20037;-48
2022/12/06 02:11:16;;;;;;;6.03;3.47;;;;;;;-7.65;52.44;101533.19;5032538;28;20022;-52
2022/12/06 02:13:42;;;;;;;8.10;3.90;;;;;;;-7.68;52.27;101525.34;5032191;28;20088;-50
2022/12/06 02:16:30;;;;;;;6.75;3.47;;;;;;;-7.55;52.07;101521.28;5031832;28;20345;-50
2022/12/06 02:19:02;;;;;;;7.63;3.38;;;;;;;-7.52;51.74;101515.25;5031205;28;20123;-51
2022/12/06 02:21:41;;;;;;;8.32;4.05;;;;;;;-7.61;51.98;101504.66;5040759;28;20064;-52
2022/12/06 02:24:06;;;;;;;7.90;3.80;;;;;;;-7.57;51.86;101515.16;5051780;28;20471;-49
2022/12/06 02:26:48;;;;;;;8.25;3.65;;;;;;;-7.51;51.92;101525.69;5053075;28;20044;-53
2022/12/06 02:29:26;;;;;;;7.32;3.65;;;;;;;-7.45;51.80;101518.84;5055052;28;20025;-50
2022/12/06 02:32:05;;;;;;;8.80;3.88;;;;;;;-7.48;51.71;101519.66;5055517;28;20325;-52
2022/12/06 02:34:41;;;;;;;7.15;3.25;;;;;;;-7.46;52.01;101518.00;5055405;28;20037;-48
2022/12/06 02:37:12;;;;;;;11.57;4.00;;;;;;;-7.44;51.78;101508.50;5055111;28;20032;-49
2022/12/06 02:39:41;;;;;;;5.68;3.28;;;;;;;-7.44;51.67;101499.78;5055580;28;20040;-53
2022/12/06 02:42:13;;;;;;;6.22;3.13;;;;;;;-7.44;51.63;101502.41;5055501;28;20032;-49
2022/12/06 02:45:03;;;;;;;10.15;3.90;;;;;;;-7.40;51.88;101499.00;5040151;28;20029;-50
2022/12/06 02:47:34;;;;;;;8.52;3.50;;;;;;;-7.37;51.76;101494.75;5035291;28;20123;-50
2022/12/06 02:50:02;;;;;;;7.63;3.97;;;;;;;-7.39;51.81;101491.25;5035539;28;20053;-53
2022/12/06 02:52:30;;;;;;;8.32;3.33;;;;;;;-7.35;51.57;101494.78;5035346;28;20199;-48
2022/12/06 02:55:00;;;;;;;7.68;3.90;;;;;;;-7.35;51.19;101487.84;5035023;28;20041;-50
2022/12/06 02:57:44;;;;;;;9.38;4.13;;;;;;;-7.30;51.71;101495.75;5035434;28;20053;-47
2022/12/06 03:00:34;;;;;;;8.25;3.75;;;;;;;-7.27;51.40;101492.31;5035406;28;20061;-53
2022/12/06 03:03:03;;;;;;;7.10;3.60;;;;;;;-7.37;51.39;101492.16;5034919;28;20048;-52
2022/12/06 03:05:38;;;;;;;5.72;2.53;;;;;;;-7.36;51.69;101496.50;5035163;28;20048;-48
2022/12/06 03:08:16;;;;;;;6.18;3.28;;;;;;;-7.32;51.15;101499.16;5055258;28;20044;-51
2022/12/06 03:10:48;;;;;;;9.77;4.07;;;;;;;-7.38;51.52;101498.19;5055014;28;20071;-51
2022/12/06 03:13:21;;;;;;;10.18;3.90;;;;;;;-7.37;51.85;101494.75;5054600;28;20487;-49
2022/12/06 03:15:49;;;;;;;8.05;3.38;;;;;;;-7.31;51.34;101501.81;5054529;28;20346;-47
2022/12/06 03:18:18;;;;;;;7.20;4.10;;;;;;;-7.32;51.45;101499.16;5054892;28;20040;-50
2022/12/06 03:20:55;;;;;;;7.45;3.80;;;;;;;-7.27;51.62;101500.13;5054184;28;20064;-49
2022/12/06 03:23:26;;;;;;;8.48;3.95;;;;;;;-7.26;51.57;101505.38;5054732;28;20104;-50
2022/12/06 03:25:56;;;;;;;7.60;3.80;;;;;;;-7.25;51.34;101499.31;5055019;28;20071;-52
2022/12/06 03:28:21;;;;;;;9.15;3.95;;;;;;;-7.13;50.91;101503.91;5050555;28;20040;-52
2022/12/06 03:30:50;;;;;;;8.35;3.53;;;;;;;-7.19;51.23;101489.88;5034505;28;20038;-49
2022/12/06 03:33:21;;;;;;;8.73;4.30;;;;;;;-7.24;51.17;101497.59;5034471;28;20069;-47
2022/12/06 03:35:49;;;;;;;8.40;4.03;;;;;;;-7.16;51.06;101492.53;5034111;28;20362;-52
2022/12/06 03:38:24;;;;;;;9.90;4.25;;;;;;;-7.18;50.95;101479.50;5034165;28;20025;-49
2022/12/06 03:40:52;;;;;;;9.43;3.88;;;;;;;-7.65;51.27;101410.94;5033598;28;20040;-51
2022/12/06 03:43:18;;;;;;;8.52;3.83;;;;;;;-7.29;51.08;101478.41;5039358;28;20036;-51
2022/12/06 03:46:02;;;;;;;9.27;3.80;;;;;;;-7.31;51.25;101477.50;5054192;28;20036;-49
2022/12/06 03:48:57;;;;;;;7.57;4.00;;;;;;;-7.36;51.89;101470.47;5053870;28;20068;-51
2022/12/06 03:51:28;;;;;;;8.35;3.80;;;;;;;-7.39;51.56;101465.22;5045213;28;20460;-49
2022/12/06 03:53:57;;;;;;;9.23;4.82;;;;;;;-7.47;51.27;101455.50;5034271;28;20034;-56
2022/12/06 03:56:24;;;;;;;8.85;3.72;;;;;;;-7.52;51.51;101464.09;5034067;28;20065;-52
2022/12/06 03:58:50;;;;;;;6.93;3.50;;;;;;;-7.56;51.79;101461.41;5033978;28;20033;-50
2022/12/06 04:01:16;;;;;;;7.38;4.18;;;;;;;-7.59;51.84;101450.94;5033810;28;20087;-48
2022/12/06 04:03:41;;;;;;;9.82;4.40;;;;;;;-7.78;51.93;101427.13;5033862;28;20031;-49
2022/12/06 04:06:08;;;;;;;9.73;3.97;;;;;;;-7.66;52.16;101457.72;5033808;28;20026;-50
2022/12/06 04:08:34;;;;;;;8.50;4.68;;;;;;;-7.69;51.92;101461.16;5034094;28;20021;-52
2022/12/06 04:10:59;;;;;;;8.75;3.95;;;;;;;-7.76;52.12;101456.66;5033556;28;20364;-51
2022/12/06 04:13:26;;;;;;;8.88;4.10;;;;;;;-7.79;51.92;101454.88;5037380;28;20057;-50
2022/12/06 04:15:56;;;;;;;7.18;3.95;;;;;;;-7.90;52.28;101460.69;5053794;28;20432;-51
2022/12/06 04:18:22;;;;;;;7.47;3.85;;;;;;;-8.03;52.36;101439.63;5053043;28;20036;-48
2022/12/06 04:23:43;;;;;;;8.32;3.58;;;;;;;-8.01;52.79;101448.31;5053336;28;20029;-53
2022/12/06 04:26:11;;;;;;;8.50;4.50;;;;;;;-8.09;52.53;101455.09;5053475;28;20459;-53
2022/12/06 04:39:34;;;;;;;10.20;4.07;;;;;;;-8.23;52.78;101432.25;5032766;28;20127;-48
2022/12/06 04:44:44;;;;;;;9.43;4.53;;;;;;;-8.31;53.29;101440.75;5033576;28;20107;-48
2022/12/06 04:47:10;;;;;;;8.13;4.07;;;;;;;-8.31;52.84;101433.81;5033063;28;20550;-50
2022/12/06 04:49:36;;;;;;;9.00;3.88;;;;;;;-8.34;53.44;101436.34;5032045;28;20411;-53
2022/12/06 04:52:03;;;;;;;9.50;3.85;;;;;;;-8.33;53.23;101434.59;5047248;28;20037;-55
2022/12/06 04:54:29;;;;;;;10.00;4.40;;;;;;;-8.33;53.60;101435.50;5053298;28;20033;-55
2022/12/06 04:56:56;;;;;;;9.88;4.85;;;;;;;-8.35;53.10;101434.59;5053088;28;20041;-61
2022/12/06 04:59:21;;;;;;;8.30;3.78;;;;;;;-8.31;53.41;101441.59;5039227;28;20444;-60
2022/12/06 05:01:47;;;;;;;9.55;3.88;;;;;;;-8.29;53.25;101437.31;5031726;28;20033;-60
2022/12/06 05:04:12;;;;;;;7.35;3.80;;;;;;;-8.27;53.63;101446.03;5032143;28;20516;-58
2022/12/06 05:06:38;;;;;;;9.52;4.45;;;;;;;-8.26;53.09;101431.31;5032725;28;20120;-58
2022/12/06 05:09:03;;;;;;;9.23;4.47;;;;;;;-8.15;53.09;101441.97;5032412;28;20400;-58
2022/12/06 05:11:29;;;;;;;9.10;4.55;;;;;;;-8.16;53.00;101435.00;5032689;28;20040;-62
2022/12/06 05:13:54;;;;;;;9.60;4.97;;;;;;;-8.10;52.75;101437.72;5042280;28;20475;-56
2022/12/06 05:16:20;;;;;;;9.65;4.72;;;;;;;-8.10;52.91;101427.34;5051332;28;20145;-55
2022/12/06 05:18:45;;;;;;;9.45;4.40;;;;;;;-8.02;52.68;101428.38;5052250;28;20088;-54
2022/12/06 05:21:17;;;;;;;10.05;4.63;;;;;;;-7.95;52.72;101435.47;5052238;28;20029;-57
2022/12/06 05:23:43;;;;;;;8.75;4.22;;;;;;;-7.84;51.96;101434.81;5042699;28;20109;-54
2022/12/06 05:26:17;;;;;;;10.88;4.90;;;;;;;-7.84;52.73;101420.09;5032110;28;20061;-57
2022/12/06 05:28:44;;;;;;;9.13;4.50;;;;;;;-7.78;52.63;101425.44;5032187;28;20029;-53
2022/12/06 05:31:10;;;;;;;9.50;4.22;;;;;;;-7.69;51.67;101423.84;5032094;28;20677;-53
2022/12/06 05:33:36;;;;;;;9.30;3.83;;;;;;;-7.68;51.99;101429.09;5039926;28;20515;-51
2022/12/06 05:36:13;;;;;;;12.13;4.63;;;;;;;-7.66;52.23;101424.81;5052059;28;20147;-53
2022/12/06 05:38:39;;;;;;;12.00;4.72;;;;;;;-7.67;51.29;101417.84;5052236;28;20108;-55
2022/12/06 05:41:06;;;;;;;8.82;4.40;;;;;;;-7.64;51.70;101425.72;5052238;28;20432;-55
2022/12/06 05:43:32;;;;;;;9.00;4.25;;;;;;;-7.62;51.65;101424.88;5051974;28;20424;-59
2022/12/06 05:45:58;;;;;;;9.13;4.65;;;;;;;-7.82;51.66;101378.53;5052388;28;20036;-53
2022/12/06 05:48:24;;;;;;;8.77;4.50;;;;;;;-7.55;51.68;101416.31;5042774;28;20056;-52
2022/12/06 05:50:50;;;;;;;7.85;4.53;;;;;;;-7.48;51.62;101422.53;5031247;28;20051;-55
2022/12/06 05:53:16;;;;;;;9.60;5.15;;;;;;;-7.43;51.45;101415.69;5031810;28;20033;-57
2022/12/06 05:55:42;;;;;;;17.83;5.65;;;;;;;-7.36;51.05;101415.84;5031903;28;20110;-53
2022/12/06 05:58:09;;;;;;;11.02;5.20;;;;;;;-7.33;51.22;101416.75;5031826;28;20037;-56
2022/12/06 06:00:35;;;;;;;9.32;4.20;;;;;;;-7.31;51.22;101410.72;5034478;28;20052;-56
2022/12/06 06:03:01;;;;;;;11.82;5.57;;;;;;;-7.40;50.50;101367.19;5037699;28;20029;-54
2022/12/06 06:05:26;;;;;;;13.27;5.32;;;;;;;-7.06;50.79;101421.59;5035897;28;20055;-57
2022/12/06 06:07:52;;;;;;;9.40;5.25;;;;;;;-7.18;50.50;101382.31;5035882;28;20034;-59
2022/12/06 06:10:18;;;;;;;10.40;5.15;;;;;;;-6.97;50.33;101390.50;5036271;28;20517;-54
2022/12/06 06:12:43;;;;;;;12.52;5.60;;;;;;;-6.84;49.70;101407.19;5041645;28;20024;-52
2022/12/06 06:15:10;;;;;;;13.63;5.40;;;;;;;-6.72;50.22;101397.84;5055781;28;20443;-54
2022/12/06 06:17:36;;;;;;;11.65;5.35;;;;;;;-6.66;49.63;101398.78;5055943;28;20108;-55
2022/12/06 06:20:04;;;;;;;9.57;4.85;;;;;;;-6.56;49.73;101383.31;5056279;28;20487;-53
2022/12/06 06:22:35;;;;;;;10.40;5.28;;;;;;;-6.37;49.56;101381.84;5054986;28;20359;-54
2022/12/06 06:25:01;;;;;;;8.30;4.85;;;;;;;-6.27;48.84;101388.97;5055850;28;20033;-59
2022/12/06 06:27:27;;;;;;;12.27;5.22;;;;;;;-6.01;48.41;101388.44;5055345;28;20035;-55
2022/12/06 06:29:53;;;;;;;10.63;4.78;;;;;;;-5.86;47.82;101384.22;5055683;28;20041;-55
2022/12/06 06:32:19;;;;;;;13.10;4.68;;;;;;;-5.62;47.61;101400.16;5055284;28;20091;-56
2022/12/06 06:34:44;;;;;;;9.48;5.00;;;;;;;-5.70;47.38;101349.66;5055172;28;20412;-57
2022/12/06 06:37:10;;;;;;;17.02;5.20;;;;;;;-5.24;46.93;101385.78;5055311;28;20115;-62
2022/12/06 06:39:35;;;;;;;13.55;5.82;;;;;;;-4.78;46.40;101380.09;5052523;28;20068;-58
2022/12/06 06:42:01;;;;;;;10.55;5.10;;;;;;;-3.33;44.03;101389.53;5034858;28;20131;-63
2022/12/06 06:44:26;;;;;;;12.20;5.70;;;;;;;-1.04;39.54;101381.94;5035125;28;20116;-60
2022/12/06 06:46:52;;;;;;;9.07;4.93;;;;;;;1.17;35.70;101376.72;5034181;28;20112;-63
2022/12/06 06:49:17;;;;;;;11.40;5.80;;;;;;;2.47;33.47;101370.72;5035569;28;20034;-61
2022/12/06 06:51:44;;;;;;;11.50;5.32;;;;;;;2.81;32.49;101379.69;5034314;28;20037;-59
2022/12/06 06:54:10;;;;;;;10.02;4.93;;;;;;;2.22;33.05;101386.25;5036558;28;20478;-64
2022/12/06 06:56:35;;;;;;;10.40;5.22;;;;;;;1.38;34.14;101390.44;5054233;28;20071;-59
2022/12/06 06:59:01;;;;;;;10.27;4.72;;;;;;;0.59;35.00;101392.53;5055430;28;20412;-62
2022/12/06 07:01:26;;;;;;;9.80;5.38;;;;;;;-0.27;36.08;101390.03;5055159;28;20406;-62
2022/12/06 07:03:52;;;;;;;9.43;5.25;;;;;;;-1.14;37.35;101390.78;5055071;28;20025;-62
2022/12/06 07:06:18;;;;;;;14.02;6.00;;;;;;;-2.05;39.18;101394.72;5054825;28;20416;-62
2022/12/06 07:08:45;;;;;;;13.00;5.28;;;;;;;-2.29;39.66;101386.03;5052998;28;20090;-60
2022/12/06 07:11:12;;;;;;;10.52;5.60;;;;;;;-1.83;39.27;101385.00;5054779;28;20044;-55
2022/12/06 07:13:40;;;;;;;10.63;5.18;;;;;;;-1.55;38.01;101345.50;5045061;28;20021;-54
2022/12/06 07:16:07;;;;;;;9.30;5.40;;;;;;;-0.93;36.33;101342.41;5051835;28;20093;-57
2022/12/06 07:18:33;;;;;;;10.32;5.00;;;;;;;-0.73;36.22;101381.69;5054783;28;20029;-56
2022/12/06 07:21:02;;;;;;;11.65;5.20;;;;;;;-1.30;36.87;101388.25;5049570;28;20451;-53
2022/12/06 07:23:28;;;;;;;12.45;5.22;;;;;;;-1.91;37.66;101390.31;5053801;28;20082;-57
2022/12/06 07:26:05;;;;;;;11.02;5.47;;;;;;;-2.52;39.38;101372.97;5039690;28;20064;-57
2022/12/06 07:28:35;;;;;;;10.98;5.45;;;;;;;-2.92;40.06;101392.19;5033683;28;20034;-54
2022/12/06 07:31:12;;;;;;;10.88;5.20;;;;;;;-3.32;40.66;101388.66;5033855;28;20392;-55
2022/12/06 07:33:38;;;;;;;11.18;4.88;;;;;;;-3.57;40.67;101394.72;5034197;28;20168;-57
2022/12/06 07:36:04;;;;;;;12.43;5.40;;;;;;;-3.76;41.37;101389.41;5017293;28;20124;-53
2022/12/06 07:38:30;;;;;;;8.95;4.60;;;;;;;-3.81;41.26;101386.75;5033129;28;20033;-56
2022/12/06 07:44:59;;;;;;;8.98;5.70;;;;;;;-3.79;41.66;101389.41;5048730;28;20447;-57
2022/12/06 07:46:39;;;;;;;13.30;5.72;;;;;;;-3.81;41.42;101402.47;5049213;28;20423;-54
2022/12/06 07:49:05;;;;;;;11.57;5.88;;;;;;;-3.79;41.69;101392.00;5054109;28;20037;-56
2022/12/06 07:51:30;;;;;;;12.13;5.75;;;;;;;-3.72;41.34;101391.16;5053808;28;20041;-54
2022/12/06 07:53:56;;;;;;;13.48;6.07;;;;;;;-3.59;41.93;101386.84;5053787;28;20029;-52
2022/12/06 07:56:22;;;;;;;11.40;5.78;;;;;;;-3.48;41.64;101382.53;5053393;28;20033;-52
2022/12/06 07:58:47;;;;;;;12.60;5.53;;;;;;;-3.37;41.10;101386.91;5045053;28;20040;-62
2022/12/06 08:01:13;;;;;;;13.77;5.50;;;;;;;-3.27;41.00;101386.03;5052476;28;20454;-57
2022/12/06 08:03:38;;;;;;;12.25;5.47;;;;;;;-3.09;40.66;101382.59;5051879;28;20037;-62
2022/12/06 08:06:04;;;;;;;10.93;5.28;;;;;;;-3.02;40.37;101380.81;5049689;28;20051;-55
2022/12/06 08:08:30;;;;;;;10.57;5.95;;;;;;;-3.01;40.74;101373.84;5042375;28;20029;-54
2022/12/06 08:10:59;;;;;;;13.80;5.45;;;;;;;-3.00;40.73;101375.59;5041480;28;20130;-52
2022/12/06 08:13:25;;;;;;;12.90;5.80;;;;;;;-3.09;41.09;101379.97;5041391;28;20030;-55
2022/12/06 08:15:51;;;;;;;10.27;5.22;;;;;;;-3.12;40.86;101386.94;5043298;28;20040;-57
2022/12/06 08:18:16;;;;;;;10.80;5.05;;;;;;;-3.18;40.87;101372.09;5040928;28;20029;-57
2022/12/06 08:20:42;;;;;;;10.10;4.97;;;;;;;-3.38;41.18;101369.44;5042422;28;20051;-52
2022/12/06 08:23:07;;;;;;;11.23;5.60;;;;;;;-3.49;41.51;101358.94;5040368;28;20359;-53
2022/12/06 08:25:33;;;;;;;11.48;5.65;;;;;;;-3.60;41.60;101358.91;5044504;28;20060;-56
2022/12/06 08:27:58;;;;;;;11.57;5.18;;;;;;;-3.67;42.16;101357.16;5052313;28;20252;-58
2022/12/06 08:30:23;;;;;;;13.70;4.95;;;;;;;-3.71;41.42;101343.16;5040072;28;20367;-54
2022/12/06 08:32:49;;;;;;;12.68;5.45;;;;;;;-3.79;42.26;101342.28;5053342;28;20040;-55
2022/12/06 08:35:14;;;;;;;13.95;5.32;;;;;;;-3.78;42.19;101339.66;5042891;28;20045;-56
2022/12/06 08:37:40;;;;;;;14.45;5.32;;;;;;;-3.70;42.28;101344.06;5033380;28;20041;-56
2022/12/06 08:40:06;;;;;;;12.85;6.47;;;;;;;-3.66;41.60;101337.97;5033407;28;20033;-56
2022/12/06 08:42:31;;;;;;;14.20;5.55;;;;;;;-3.69;41.59;101330.97;5033009;28;20033;-55
2022/12/06 08:45:15;;;;;;;13.52;5.88;;;;;;;-3.71;42.13;101334.47;5069531;28;20372;-54
2022/12/06 08:47:40;;;;;;;9.70;5.40;;;;;;;-3.92;41.88;101305.59;5068674;28;20471;-58
2022/12/06 08:50:06;;;;;;;11.23;5.22;;;;;;;-3.77;42.28;101330.94;5070952;28;20047;-57
2022/12/06 08:52:32;;;;;;;16.38;5.68;;;;;;;-3.75;42.90;101338.81;5070259;28;20028;-59
2022/12/06 08:54:58;;;;;;;19.33;5.95;;;;;;;-3.78;42.13;101331.81;5069169;28;20123;-58
2022/12/06 08:57:23;;;;;;;14.30;5.72;;;;;;;-3.81;42.56;101329.19;5068085;28;20120;-56
2022/12/06 08:59:49;;;;;;;13.80;5.60;;;;;;;-3.81;42.24;101323.94;5051534;28;20033;-54
2022/12/06 09:02:14;;;;;;;8.88;4.85;;;;;;;-3.75;41.98;101323.09;5031001;28;20044;-58
2022/12/06 09:04:39;;;;;;;12.40;5.32;;;;;;;-3.77;42.21;101314.38;5049802;28;20036;-59
2022/12/06 09:07:05;;;;;;;14.85;5.80;;;;;;;-3.70;42.20;101323.13;5048487;28;20159;-55
2022/12/06 09:09:30;;;;;;;11.20;5.10;;;;;;;-3.69;41.45;101317.88;5049315;28;20044;-54
2022/12/06 09:11:56;;;;;;;10.18;5.32;;;;;;;-3.74;41.33;101317.00;5048154;28;20044;-59
2022/12/06 09:14:21;;;;;;;18.85;5.97;;;;;;;-3.82;42.03;101313.50;5036506;28;20034;-57
2022/12/06 09:16:48;;;;;;;11.88;5.15;;;;;;;-4.15;42.19;101265.41;5029080;28;20037;-56
2022/12/06 09:19:14;;;;;;;11.35;5.80;;;;;;;-3.95;42.13;101310.81;5028760;28;20044;-59
2022/12/06 09:21:41;;;;;;;11.90;5.30;;;;;;;-4.00;42.29;101315.16;5029060;28;20030;-59
2022/12/06 09:24:15;;;;;;;14.60;5.35;;;;;;;-3.95;42.21;101304.72;5029357;28;20099;-55
2022/12/06 09:26:41;;;;;;;14.55;5.75;;;;;;;-4.27;41.97;101264.50;5028841;28;20033;-59
2022/12/06 09:29:07;;;;;;;10.73;4.80;;;;;;;-4.08;42.11;101299.44;5035825;28;20036;-57
2022/12/06 09:31:34;;;;;;;9.65;4.35;;;;;;;-4.13;42.19;101301.16;5047629;28;20061;-58
2022/12/06 09:33:59;;;;;;;11.95;5.72;;;;;;;-4.15;42.20;101299.41;5048365;28;20041;-56
2022/12/06 09:36:29;;;;;;;10.05;4.80;;;;;;;-4.45;41.67;101256.56;5047492;28;20035;-54
2022/12/06 09:39:15;;;;;;;12.95;5.55;;;;;;;-4.29;42.55;101294.13;5048578;28;20037;-54
2022/12/06 09:42:11;;;;;;;12.27;5.43;;;;;;;-4.26;42.74;101301.97;5048720;28;20033;-55
2022/12/06 09:44:48;;;;;;;11.07;4.75;;;;;;;-4.31;42.32;101304.59;5048392;28;20132;-55
2022/12/06 09:47:27;;;;;;;11.55;5.18;;;;;;;-4.29;42.29;101288.88;5048265;28;20033;-56
2022/12/06 09:50:14;;;;;;;11.13;5.65;;;;;;;-4.38;42.49;101280.16;5048135;28;20033;-56
2022/12/06 09:52:42;;;;;;;9.10;4.32;;;;;;;-4.45;42.03;101287.94;5048602;28;20412;-53
2022/12/06 09:55:29;;;;;;;12.23;5.28;;;;;;;-4.42;42.80;101285.34;5040726;28;20034;-61
2022/12/06 09:58:14;;;;;;;11.98;5.35;;;;;;;-4.39;42.77;101283.63;5033964;28;20418;-57
2022/12/06 10:00:47;;;;;;;11.13;4.93;;;;;;;-4.30;42.66;101274.97;5013551;28;20617;-58
2022/12/06 10:03:38;;;;;;;11.35;4.80;;;;;;;-4.20;41.55;101275.88;5015667;28;20533;-58
2022/12/06 10:06:10;;;;;;;9.25;5.18;;;;;;;-4.18;41.65;101272.38;5034071;28;20463;-58
2022/12/06 10:08:57;;;;;;;9.32;4.55;;;;;;;-4.13;42.14;101268.88;5033602;28;20068;-56
2022/12/06 10:11:46;;;;;;;8.98;4.10;;;;;;;-4.05;40.69;101264.56;5034748;28;20068;-55
2022/12/06 10:14:48;;;;;;;7.35;4.10;;;;;;;-3.96;40.71;101271.59;5030882;28;20045;-56
2022/12/06 10:17:35;;;;;;;9.27;4.28;;;;;;;-3.96;40.85;101266.34;5026098;28;20037;-59
2022/12/06 10:20:29;;;;;;;10.00;4.30;;;;;;;-4.16;41.14;101227.03;5034030;28;20029;-58
2022/12/06 10:22:57;;;;;;;10.63;4.22;;;;;;;-3.88;40.79;101259.38;5032549;28;20432;-57
2022/12/06 10:25:36;;;;;;;9.45;4.80;;;;;;;-3.78;40.20;101257.66;5034155;28;20037;-56
2022/12/06 10:28:13;;;;;;;9.52;3.92;;;;;;;-3.78;40.17;101239.34;5033569;28;20025;-57
2022/12/06 10:30:47;;;;;;;11.05;4.00;;;;;;;-3.61;39.53;101248.09;5034296;28;20041;-56
2022/12/06 10:33:28;;;;;;;10.32;4.45;;;;;;;-3.65;39.85;101246.31;5034209;28;20099;-59
2022/12/06 10:36:04;;;;;;;7.43;4.25;;;;;;;-3.87;39.51;101202.66;5033423;28;20278;-56
2022/12/06 10:38:29;;;;;;;12.07;4.20;;;;;;;-3.64;39.91;101232.34;5033157;28;20375;-57
2022/12/06 10:41:20;;;;;;;10.73;4.25;;;;;;;-3.59;39.40;101239.38;5034164;28;20120;-56
2022/12/06 10:44:10;;;;;;;8.35;3.67;;;;;;;-3.57;38.75;101240.25;5033263;28;20064;-55
2022/12/06 10:47:03;;;;;;;13.45;4.03;;;;;;;-3.59;39.05;101235.00;5033825;28;20037;-58
2022/12/06 10:49:34;;;;;;;7.30;4.00;;;;;;;-3.65;39.48;101230.63;5014243;28;20037;-50
2022/12/06 10:52:18;;;;;;;10.18;4.05;;;;;;;-3.53;39.49;101218.41;5017660;28;20099;-55
2022/12/06 10:54:58;;;;;;;11.68;4.10;;;;;;;-3.47;39.70;101215.78;5033522;28;20059;-57
2022/12/06 10:57:40;;;;;;;9.27;4.50;;;;;;;-3.43;39.10;101222.78;5033586;28;20437;-52
2022/12/06 11:00:18;;;;;;;10.85;4.25;;;;;;;-3.39;39.08;101213.19;5033307;28;20025;-54
2022/12/06 11:03:05;;;;;;;10.05;4.13;;;;;;;-3.43;39.36;101214.91;5031817;28;20433;-52
2022/12/06 11:05:36;;;;;;;10.35;4.50;;;;;;;-3.52;39.57;101218.41;5022917;28;20045;-53
2022/12/06 11:08:09;;;;;;;10.43;4.85;;;;;;;-3.59;39.65;101207.97;5032376;28;20044;-56
2022/12/06 11:10:37;;;;;;;14.98;5.93;;;;;;;-3.69;39.17;101201.84;5033188;28;20800;-57
2022/12/06 11:13:17;;;;;;;8.55;4.57;;;;;;;-3.66;39.66;101212.31;5031947;28;20044;-49
2022/12/06 11:15:58;;;;;;;12.82;4.50;;;;;;;-3.65;39.89;101216.66;5033563;28;20029;-50
2022/12/06 11:18:27;;;;;;;7.80;4.07;;;;;;;-3.66;39.99;101217.53;5032368;28;20460;-53
2022/12/06 11:21:01;;;;;;;9.27;4.32;;;;;;;-3.62;39.60;101203.56;5033033;28;20444;-57
2022/12/06 11:24:06;;;;;;;8.20;4.30;;;;;;;-3.62;40.25;101209.69;5023881;28;20034;-55
2022/12/06 11:26:43;;;;;;;8.57;4.93;;;;;;;-3.84;39.83;101182.63;5030932;28;20087;-52
2022/12/06 11:29:13;;;;;;;8.50;3.88;;;;;;;-3.73;40.10;101200.94;5023748;28;20030;-50
2022/12/06 11:31:44;;;;;;;9.30;4.65;;;;;;;-3.74;39.72;101209.69;5031670;28;20332;-55
2022/12/06 11:34:35;;;;;;;9.25;4.05;;;;;;;-3.64;40.28;101211.41;5031903;28;20047;-56
2022/12/06 11:37:03;;;;;;;7.82;4.47;;;;;;;-3.70;39.59;101203.56;5028932;28;20017;-53
2022/12/06 11:39:30;;;;;;;8.35;3.63;;;;;;;-3.70;39.51;101195.72;5031866;28;20348;-52
2022/12/06 11:41:58;;;;;;;8.05;4.22;;;;;;;-3.61;39.41;101181.75;5031007;28;20581;-55
2022/12/06 11:44:37;;;;;;;8.90;4.13;;;;;;;-3.53;38.92;101200.09;5029527;28;20120;-51
2022/12/06 11:47:05;;;;;;;10.30;4.07;;;;;;;-3.82;39.01;101151.25;5028505;28;20045;-55
2022/12/06 11:49:35;;;;;;;11.27;4.07;;;;;;;-3.49;38.40;101188.75;5030720;28;20065;-56
2022/12/06 11:52:16;;;;;;;9.88;3.83;;;;;;;-3.51;38.71;101186.09;5030480;28;20040;-51
2022/12/06 11:54:52;;;;;;;8.45;3.65;;;;;;;-3.49;39.19;101173.91;5028164;28;20044;-57